Vremea acum in Vașcău - Romania

Vrei sa afli care e starea vremii acum in Bihor - Romania? Dorim sa iti furnizam starea vremii pentru Bihor - Romania. Starea vremii Bihor - Romania pentru astazi.

Vremea acum in Vașcău

Temperatura: 19.8 °C

Este: Patchy rain nearby
Se simte ca: 19.8 °C
Innorat: 87 %
Precipitatii: 0 %
Presiune atmosferica: 1014 hPa
Umiditate: 50%
Vizibilitate: 10 km
Vantul bate din SW cu 6.5 km/h

Evolutia vremii in Vașcău pe ore

Ora: 10:00
Senin
Temperatura: 18.2°C
Sansa de precipitatii: 0%
Ora Descriere Temp Se simte Precipitatii Umiditate Vant
00:00Senin11.8°11.5°0%64%E 6.1 KM/H
01:00Patchy rain nearby11.4°11.1°100%65%E 6.1 KM/H
02:00Senin10.8°11.1°0%67%ESE 4 KM/H
03:00Senin10.3°10.2°0%70%ESE 4.7 KM/H
04:00Senin10°9.6°0%73%ESE 5.4 KM/H
05:00Senin9.3°9.2°0%77%ESE 4.3 KM/H
06:00Senin8.8°8.8°0%80%ESE 2.9 KM/H
07:00Senin9.8°9.8°0%79%ESE 4 KM/H
08:00Senin13.9°14.7°0%70%SE 3.2 KM/H
09:00Senin16.3°16.3°0%62%SSW 4.7 KM/H
10:00Senin18.2°18.2°0%56%SSW 5 KM/H
11:00Patchy rain nearby19.8°19.8°76%50%SW 6.5 KM/H
12:0021.4°21.4°0%44%SW 7.9 KM/H
13:00Patchy rain nearby22.2°24.1°69%40%SW 10.1 KM/H
14:00Acoperit de nori22.9°24.1°0%36%SW 11.5 KM/H
15:00Patchy rain nearby23°24°72%35%WSW 13.3 KM/H
16:00Senin23°24°0%35%WSW 12.6 KM/H
17:00Senin22.8°24.1°0%36%WSW 12.2 KM/H
18:00Senin22.2°24.1°0%41%WSW 11.5 KM/H
19:00Patchy rain nearby20.8°20.8°86%52%WSW 7.9 KM/H
20:00Senin15.8°15.8°0%68%W 3.2 KM/H
21:00Senin12.9°13°0%78%NNE 1.4 KM/H
22:00Senin12.2°12.3°0%81%ENE 4.7 KM/H
23:00Senin11.7°11.5°0%83%E 5.8 KM/H




tutorials